Time;durP1;ratioP1;P1;durP2;ratioP2;P2;SDS_P1;SDS_P2;PMS_P1;PMS_P2;Temp;Humidity;BMP_temperature;BMP_pressure;BME280_temperature;BME280_humidity;BME280_pressure;Samples;Min_cycle;Max_cycle;Signal;HPM_P1;HPM_P2
2024/04/12 00:00:57;;;;;;;24.20;15.82;;;16.50;99.90;;;;;;5453281;26;20006;-75
2024/04/12 00:03:22;;;;;;;21.33;15.52;;;16.40;99.90;;;;;;5451776;26;19995;-74
2024/04/12 00:05:48;;;;;;;24.55;16.50;;;16.40;99.90;;;;;;5445861;26;20018;-73
2024/04/12 00:08:16;;;;;;;22.67;16.38;;;16.40;99.90;;;;;;5441580;26;20100;-74
2024/04/12 00:10:41;;;;;;;24.17;17.70;;;16.50;99.90;;;;;;5453116;26;20022;-74
2024/04/12 00:13:07;;;;;;;26.23;17.63;;;16.40;99.90;;;;;;5452145;26;19999;-73
2024/04/12 00:15:33;;;;;;;24.50;19.02;;;16.50;99.90;;;;;;5453752;26;19995;-73
2024/04/12 00:18:01;;;;;;;29.50;20.48;;;16.50;99.90;;;;;;5453341;26;19999;-81
2024/04/12 00:20:29;;;;;;;26.67;20.10;;;16.30;99.90;;;;;;5453161;26;20006;-72
2024/04/12 00:22:56;;;;;;;25.92;19.88;;;16.40;99.90;;;;;;5451694;26;19999;-72
2024/04/12 00:25:24;;;;;;;29.73;20.75;;;16.40;99.90;;;;;;5453504;26;20324;-73
2024/04/12 00:27:50;;;;;;;26.70;19.65;;;16.40;99.90;;;;;;5452831;26;20049;-72
2024/04/12 00:33:01;;;;;;;25.80;17.92;;;16.20;99.90;;;;;;5452123;26;20013;-73
2024/04/12 00:35:34;;;;;;;30.25;19.58;;;16.10;99.90;;;;;;5452039;26;19998;-73
2024/04/12 00:38:03;;;;;;;30.15;19.85;;;16.20;99.90;;;;;;5452861;26;19999;-73
2024/04/12 00:40:32;;;;;;;28.27;19.35;;;16.20;99.90;;;;;;5452407;26;20003;-74
2024/04/12 00:43:11;;;;;;;29.80;18.38;;;16.20;99.90;;;;;;5451963;26;20022;-73
2024/04/12 00:45:43;;;;;;;26.48;18.55;;;16.30;99.90;;;;;;5451735;26;20003;-72
2024/04/12 00:48:09;;;;;;;28.90;18.27;;;16.30;99.90;;;;;;5451701;26;20017;-72
2024/04/12 00:50:37;;;;;;;22.80;18.17;;;16.30;99.90;;;;;;5452224;26;19995;-72
2024/04/12 00:53:09;;;;;;;27.25;18.58;;;16.30;99.90;;;;;;5445429;26;19999;-72
2024/04/12 00:55:38;;;;;;;23.55;16.77;;;16.30;99.90;;;;;;5444487;26;20013;-72
2024/04/12 00:58:13;;;;;;;22.13;15.85;;;16.30;99.90;;;;;;5452901;26;19998;-72
2024/04/12 01:00:46;;;;;;;25.10;18.10;;;16.30;99.90;;;;;;5450753;26;20611;-72
2024/04/12 01:03:15;;;;;;;23.65;17.45;;;16.40;99.90;;;;;;5453490;26;20035;-72
2024/04/12 01:05:41;;;;;;;24.75;17.05;;;16.30;99.90;;;;;;5452514;26;20007;-72
2024/04/12 01:08:07;;;;;;;26.63;17.23;;;16.20;99.90;;;;;;5452866;26;20003;-72
2024/04/12 01:10:36;;;;;;;24.67;16.85;;;16.20;99.90;;;;;;5451053;26;20092;-72
2024/04/12 01:13:04;;;;;;;28.23;16.98;;;16.10;99.90;;;;;;5452619;26;20364;-73
2024/04/12 01:15:37;;;;;;;21.83;16.55;;;16.10;99.90;;;;;;5452068;26;20006;-72
2024/04/12 01:18:04;;;;;;;20.55;15.43;;;16.10;99.90;;;;;;5451737;26;20010;-72
2024/04/12 01:20:32;;;;;;;19.15;15.20;;;16.20;99.90;;;;;;5451350;26;20779;-72
2024/04/12 01:23:03;;;;;;;26.67;17.80;;;16.20;99.90;;;;;;5452872;26;20010;-72
2024/04/12 01:25:29;;;;;;;22.40;15.15;;;16.20;99.90;;;;;;5452389;26;20079;-72
2024/04/12 01:27:57;;;;;;;22.80;15.75;;;16.20;99.90;;;;;;5451238;26;20002;-72
2024/04/12 01:30:23;;;;;;;20.42;16.45;;;16.10;99.90;;;;;;5452400;26;20006;-72
2024/04/12 01:32:50;;;;;;;21.52;16.05;;;16.10;99.90;;;;;;5452865;26;19999;-72
2024/04/12 01:35:24;;;;;;;19.88;16.77;;;16.10;99.90;;;;;;5451991;26;20002;-73
2024/04/12 01:37:51;;;;;;;23.15;16.95;;;16.10;99.90;;;;;;5452891;26;20015;-72
2024/04/12 01:40:23;;;;;;;17.88;14.45;;;16.10;99.90;;;;;;5450128;26;20010;-72
2024/04/12 01:42:49;;;;;;;20.58;15.80;;;16.10;99.90;;;;;;5451705;26;19999;-72
2024/04/12 01:45:15;;;;;;;24.45;16.92;;;16.20;99.90;;;;;;5452424;26;20013;-73
2024/04/12 01:47:42;;;;;;;23.52;16.33;;;16.20;99.90;;;;;;5452154;26;20071;-72
2024/04/12 01:50:12;;;;;;;26.20;17.23;;;16.20;99.90;;;;;;5451704;26;20023;-72
2024/04/12 01:52:54;;;;;;;26.17;18.48;;;16.20;99.90;;;;;;5451577;26;20381;-72
2024/04/12 01:55:21;;;;;;;27.73;19.37;;;16.20;99.90;;;;;;5443011;26;20004;-72
2024/04/12 01:57:49;;;;;;;24.67;18.15;;;16.20;99.90;;;;;;5451610;26;19998;-72
2024/04/12 02:00:20;;;;;;;22.55;17.13;;;16.20;99.90;;;;;;5450569;26;19994;-72
2024/04/12 02:02:51;;;;;;;26.88;18.40;;;16.20;99.90;;;;;;5452581;26;19995;-73
2024/04/12 02:05:20;;;;;;;24.10;18.85;;;16.30;99.90;;;;;;5452399;26;20003;-72
2024/04/12 02:07:46;;;;;;;25.00;18.02;;;16.30;99.90;;;;;;5451450;26;20356;-72
2024/04/12 02:10:11;;;;;;;24.90;17.98;;;16.40;99.90;;;;;;5451172;26;20010;-72
2024/04/12 02:12:41;;;;;;;23.67;16.98;;;16.40;99.90;;;;;;5451255;26;20013;-72
2024/04/12 02:17:57;;;;;;;23.25;16.15;;;16.20;99.90;;;;;;5451177;26;20009;-72
2024/04/12 02:20:36;;;;;;;22.00;16.98;;;16.20;99.90;;;;;;5428647;26;19995;-72
2024/04/12 02:23:05;;;;;;;22.23;18.13;;;16.20;99.90;;;;;;5452020;26;20018;-72
2024/04/12 02:25:35;;;;;;;26.60;18.23;;;16.10;99.90;;;;;;5451219;26;20010;-72
2024/04/12 02:28:07;;;;;;;23.38;16.48;;;16.20;99.90;;;;;;5451132;26;20071;-72
2024/04/12 02:30:53;;;;;;;25.50;16.40;;;16.20;99.90;;;;;;5451496;26;20009;-73
2024/04/12 02:33:21;;;;;;;20.45;15.55;;;16.10;99.90;;;;;;5452140;26;19995;-72
2024/04/12 02:35:58;;;;;;;26.33;17.48;;;16.10;99.90;;;;;;5450244;26;20020;-72
2024/04/12 02:38:27;;;;;;;21.75;17.00;;;16.10;99.90;;;;;;5449970;26;19999;-72
2024/04/12 02:40:53;;;;;;;21.52;15.68;;;16.20;99.90;;;;;;5451130;26;20006;-72
2024/04/12 02:43:24;;;;;;;23.45;15.70;;;16.20;99.90;;;;;;5450064;26;20006;-73
2024/04/12 02:45:51;;;;;;;25.67;17.00;;;16.20;99.90;;;;;;5451402;26;20025;-75
2024/04/12 02:48:19;;;;;;;21.60;16.35;;;16.20;99.90;;;;;;5451650;26;20011;-72
2024/04/12 02:50:47;;;;;;;22.05;15.82;;;16.10;99.90;;;;;;5450835;26;19999;-72
2024/04/12 02:53:18;;;;;;;22.75;16.27;;;16.10;99.90;;;;;;5451006;26;20003;-72
2024/04/12 02:55:44;;;;;;;23.30;16.42;;;16.10;99.90;;;;;;5449101;26;20014;-72
2024/04/12 02:58:10;;;;;;;25.88;16.73;;;16.10;99.90;;;;;;5451378;26;20121;-72
2024/04/12 03:00:37;;;;;;;26.92;16.33;;;16.10;99.90;;;;;;5451196;26;19995;-72
2024/04/12 03:03:06;;;;;;;24.15;15.85;;;16.10;99.90;;;;;;5449804;26;20007;-73
2024/04/12 03:05:32;;;;;;;23.77;15.43;;;16.20;99.90;;;;;;5451177;26;20343;-72
2024/04/12 03:08:00;;;;;;;20.27;14.38;;;16.20;99.90;;;;;;5451037;26;20003;-72
2024/04/12 03:10:32;;;;;;;21.70;14.43;;;16.20;99.90;;;;;;5450068;26;20010;-72
2024/04/12 03:13:00;;;;;;;22.23;15.32;;;16.20;99.90;;;;;;5450344;26;20013;-72
2024/04/12 03:15:27;;;;;;;21.48;14.60;;;16.20;99.90;;;;;;5450783;26;20007;-73
2024/04/12 03:17:52;;;;;;;22.15;13.50;;;16.30;99.90;;;;;;5451133;26;20014;-72
2024/04/12 03:20:18;;;;;;;20.77;13.60;;;16.20;99.90;;;;;;5450324;26;19999;-72
2024/04/12 03:22:45;;;;;;;19.38;13.57;;;16.20;99.90;;;;;;5449028;26;20075;-72
2024/04/12 03:25:12;;;;;;;20.48;13.68;;;16.20;99.90;;;;;;5450579;26;19998;-72
2024/04/12 03:27:38;;;;;;;23.70;14.38;;;16.20;99.90;;;;;;5450692;26;20006;-72
2024/04/12 03:30:16;;;;;;;20.42;13.00;;;16.20;99.90;;;;;;5453261;26;20029;-73
2024/04/12 03:32:46;;;;;;;21.98;14.40;;;16.20;99.90;;;;;;5453994;26;20003;-73
2024/04/12 03:35:12;;;;;;;28.95;14.02;;;16.20;99.90;;;;;;5453162;26;20010;-72
2024/04/12 03:37:39;;;;;;;21.15;13.68;;;16.20;99.90;;;;;;5454049;26;19999;-72
2024/04/12 03:40:28;;;;;;;18.38;13.13;;;16.20;99.90;;;;;;5454299;26;20375;-72
2024/04/12 03:43:02;;;;;;;16.73;12.32;;;16.20;99.90;;;;;;5452316;26;20006;-72
2024/04/12 03:45:30;;;;;;;21.55;13.18;;;16.20;99.90;;;;;;5453774;26;20630;-72
2024/04/12 03:47:57;;;;;;;20.08;12.82;;;16.20;99.90;;;;;;5453389;26;19991;-73
2024/04/12 03:50:30;;;;;;;19.25;12.73;;;16.20;99.90;;;;;;5451490;26;20005;-72
2024/04/12 03:53:04;;;;;;;22.30;14.38;;;16.20;99.90;;;;;;5454183;26;19995;-72
2024/04/12 03:55:30;;;;;;;17.27;12.80;;;16.20;99.90;;;;;;5453936;26;19995;-72
2024/04/12 03:57:55;;;;;;;25.77;14.27;;;16.20;99.90;;;;;;5452309;26;20002;-72
2024/04/12 04:00:22;;;;;;;20.38;12.73;;;16.20;99.90;;;;;;5452673;26;20100;-74
2024/04/12 04:02:48;;;;;;;18.70;12.48;;;16.20;99.90;;;;;;5453948;26;19995;-72
2024/04/12 04:05:15;;;;;;;18.52;13.57;;;16.20;99.90;;;;;;5452844;26;20005;-72
2024/04/12 04:07:44;;;;;;;17.52;12.82;;;16.20;99.90;;;;;;5451923;26;20861;-72
2024/04/12 04:10:14;;;;;;;20.65;13.85;;;16.20;99.90;;;;;;5452730;26;20002;-72
2024/04/12 04:12:45;;;;;;;18.30;12.60;;;16.20;99.90;;;;;;5453364;26;20015;-72
2024/04/12 04:15:14;;;;;;;18.38;12.88;;;16.20;99.90;;;;;;5453504;26;20099;-72
2024/04/12 04:17:47;;;;;;;18.70;13.32;;;16.20;99.90;;;;;;5454067;26;20351;-72
2024/04/12 04:20:14;;;;;;;;;;;16.20;99.90;;;;;;5452245;26;20896;-72
2024/04/12 04:22:40;;;;;;;18.13;11.90;;;16.20;99.90;;;;;;5454017;26;19924;-73
2024/04/12 04:25:10;;;;;;;22.20;12.73;;;16.30;99.90;;;;;;5453842;26;20096;-72
2024/04/12 04:27:36;;;;;;;21.98;12.07;;;16.20;99.90;;;;;;5452281;26;20003;-72
2024/04/12 04:30:02;;;;;;;17.05;12.45;;;16.20;99.90;;;;;;5453496;26;20003;-72
2024/04/12 04:32:28;;;;;;;19.48;13.18;;;16.20;99.90;;;;;;5453284;26;20010;-72
2024/04/12 04:34:55;;;;;;;15.07;11.90;;;16.20;99.90;;;;;;5451338;26;19999;-72
2024/04/12 04:37:29;;;;;;;18.88;12.13;;;16.10;99.90;;;;;;5453759;26;19995;-72
2024/04/12 04:39:55;;;;;;;17.20;12.30;;;16.20;99.90;;;;;;5453610;26;20347;-73
2024/04/12 04:42:23;;;;;;;17.40;12.48;;;16.10;99.90;;;;;;5452688;26;20009;-72
2024/04/12 04:44:49;;;;;;;22.23;12.80;;;16.10;99.90;;;;;;5453185;26;19999;-72
2024/04/12 04:47:15;;;;;;;20.27;12.48;;;16.10;99.90;;;;;;5452248;26;20006;-73
2024/04/12 04:49:40;;;;;;;25.08;12.98;;;16.10;99.90;;;;;;5453037;26;20335;-72
2024/04/12 04:52:08;;;;;;;22.88;13.18;;;16.10;99.90;;;;;;5451478;26;20003;-72
2024/04/12 04:54:39;;;;;;;17.45;12.63;;;16.20;99.90;;;;;;5452969;26;19994;-72
2024/04/12 04:57:05;;;;;;;23.95;13.25;;;16.10;99.90;;;;;;5452957;26;20015;-72
2024/04/12 04:59:32;;;;;;;21.83;12.25;;;16.10;99.90;;;;;;5451643;26;20528;-71
2024/04/12 05:02:00;;;;;;;20.45;13.50;;;16.10;99.90;;;;;;5451337;26;20007;-72
2024/04/12 05:04:31;;;;;;;21.60;12.85;;;16.10;99.90;;;;;;5452722;26;20347;-72
2024/04/12 05:06:58;;;;;;;20.27;12.45;;;16.10;99.90;;;;;;5452999;26;20335;-73
2024/04/12 05:09:27;;;;;;;18.20;12.32;;;16.20;99.90;;;;;;5452584;26;19995;-72
2024/04/12 05:11:54;;;;;;;22.90;12.75;;;16.20;99.90;;;;;;5452964;26;20014;-71
2024/04/12 05:14:46;;;;;;;22.65;13.32;;;16.20;99.90;;;;;;5431531;26;20008;-72
2024/04/12 05:17:15;;;;;;;21.40;12.32;;;16.20;99.90;;;;;;5419880;26;20026;-71
2024/04/12 05:19:43;;;;;;;19.17;11.70;;;16.20;99.90;;;;;;5426905;26;20072;-71
2024/04/12 05:22:13;;;;;;;19.52;12.90;;;16.20;99.90;;;;;;5431211;26;20011;-71
2024/04/12 05:24:41;;;;;;;18.70;12.18;;;16.20;99.90;;;;;;5427039;26;20048;-71
2024/04/12 05:27:11;;;;;;;21.10;13.30;;;16.20;99.90;;;;;;5429595;26;20013;-72
2024/04/12 05:29:37;;;;;;;22.55;13.57;;;16.20;99.90;;;;;;5424681;26;20007;-72
2024/04/12 05:32:06;;;;;;;22.63;11.48;;;16.20;99.90;;;;;;5429505;26;20014;-72
2024/04/12 05:34:34;;;;;;;21.25;13.60;;;16.20;99.90;;;;;;5426871;26;19999;-71
2024/04/12 05:37:03;;;;;;;20.90;12.30;;;16.20;99.90;;;;;;5428378;26;20003;-72
2024/04/12 05:39:33;;;;;;;20.48;12.13;;;16.20;99.90;;;;;;5431710;26;20004;-72
2024/04/12 05:42:05;;;;;;;20.05;12.13;;;16.20;99.90;;;;;;5428746;26;20014;-71
2024/04/12 05:44:34;;;;;;;19.52;12.05;;;16.30;99.90;;;;;;5435855;26;20006;-72
2024/04/12 05:47:01;;;;;;;18.75;12.80;;;16.20;99.90;;;;;;5433212;26;20035;-72
2024/04/12 05:49:29;;;;;;;22.50;13.27;;;16.20;99.90;;;;;;5433580;26;20025;-72
2024/04/12 05:51:55;;;;;;;17.35;11.60;;;16.20;99.90;;;;;;5433780;26;20030;-71
2024/04/12 05:54:21;;;;;;;17.92;12.82;;;16.30;99.90;;;;;;5436927;26;20003;-71
2024/04/12 05:56:48;;;;;;;21.17;13.18;;;16.20;99.90;;;;;;5431138;26;20000;-72
2024/04/12 05:59:17;;;;;;;27.30;13.98;;;16.20;99.90;;;;;;5430611;26;20046;-72
2024/04/12 06:01:46;;;;;;;20.63;12.88;;;16.20;99.90;;;;;;5423318;26;20003;-72
2024/04/12 06:04:20;;;;;;;21.92;12.20;;;16.20;99.90;;;;;;5430470;26;20007;-72
2024/04/12 06:06:47;;;;;;;22.95;12.95;;;16.20;99.90;;;;;;5428408;26;20638;-72
2024/04/12 06:09:20;;;;;;;21.75;13.40;;;16.20;99.90;;;;;;5431784;26;20385;-69
2024/04/12 06:11:50;;;;;;;18.80;12.77;;;16.20;99.90;;;;;;5432797;26;20079;-72
2024/04/12 06:14:20;;;;;;;19.15;12.10;;;16.30;99.90;;;;;;5429166;26;20007;-72
2024/04/12 06:16:47;;;;;;;18.27;12.55;;;16.30;99.90;;;;;;5417624;26;19999;-72
2024/04/12 06:19:14;;;;;;;20.65;12.70;;;16.30;99.90;;;;;;5415068;26;20003;-72
2024/04/12 06:21:45;;;;;;;18.92;12.93;;;16.20;99.90;;;;;;5421908;26;20018;-72
2024/04/12 06:24:29;;;;;;;21.23;13.20;;;16.30;99.90;;;;;;5425264;26;20009;-72
2024/04/12 06:26:55;;;;;;;20.95;12.55;;;16.30;99.90;;;;;;5423462;26;20418;-72
2024/04/12 06:29:22;;;;;;;23.73;12.52;;;16.30;99.90;;;;;;5432218;26;20053;-72
2024/04/12 06:31:51;;;;;;;18.90;12.85;;;16.40;99.90;;;;;;5422858;26;20340;-72
2024/04/12 06:34:17;;;;;;;17.17;12.45;;;16.40;99.90;;;;;;5419815;26;20014;-72
2024/04/12 06:36:56;;;;;;;20.73;13.38;;;16.40;99.90;;;;;;5417642;26;20020;-73
2024/04/12 06:39:27;;;;;;;21.77;13.00;;;16.50;99.90;;;;;;5420358;26;19991;-73
2024/04/12 06:41:55;;;;;;;21.65;13.45;;;16.50;99.90;;;;;;5431662;26;20072;-72
2024/04/12 06:44:21;;;;;;;16.55;12.55;;;16.60;99.90;;;;;;5430158;26;20039;-72
2024/04/12 06:46:58;;;;;;;20.38;12.07;;;16.60;99.90;;;;;;5427255;26;20101;-72
2024/04/12 06:49:27;;;;;;;21.83;12.52;;;16.70;99.90;;;;;;5429356;26;20011;-74
2024/04/12 06:52:09;;;;;;;22.73;11.25;;;16.80;99.90;;;;;;5426081;26;20035;-72
2024/04/12 06:54:42;;;;;;;23.63;12.55;;;16.80;99.90;;;;;;5420203;26;20007;-73
2024/04/12 06:57:09;;;;;;;17.88;11.43;;;16.80;99.90;;;;;;5425499;26;20003;-73
2024/04/12 06:59:35;;;;;;;17.10;10.75;;;16.80;99.90;;;;;;5430177;26;20009;-73
2024/04/12 07:02:08;;;;;;;26.55;11.48;;;16.90;99.90;;;;;;5434611;26;22917;-77
2024/04/12 07:04:38;;;;;;;17.27;11.10;;;17.00;99.90;;;;;;5431683;26;20015;-75
2024/04/12 07:07:06;;;;;;;18.50;12.43;;;17.00;99.90;;;;;;5440721;26;20763;-73
2024/04/12 07:09:32;;;;;;;20.52;11.60;;;17.00;99.90;;;;;;5436283;26;19995;-77
2024/04/12 07:12:05;;;;;;;23.40;11.73;;;17.00;99.90;;;;;;5436187;26;20003;-76
2024/04/12 07:14:33;;;;;;;16.63;10.48;;;16.90;99.90;;;;;;5439500;26;20010;-75
2024/04/12 07:16:59;;;;;;;18.13;10.73;;;16.90;99.90;;;;;;5431029;26;20014;-74
2024/04/12 07:19:26;;;;;;;17.92;10.05;;;17.00;99.90;;;;;;5434771;26;19990;-76
2024/04/12 07:21:54;;;;;;;18.35;11.00;;;17.00;99.90;;;;;;5434977;26;19999;-74
2024/04/12 07:24:22;;;;;;;22.55;11.00;;;17.00;99.90;;;;;;5435938;26;20479;-75
2024/04/12 07:26:49;;;;;;;18.95;11.23;;;17.10;99.90;;;;;;5430311;26;19999;-74
2024/04/12 07:29:14;;;;;;;19.25;11.30;;;17.00;99.90;;;;;;5436624;26;20030;-76
2024/04/12 07:31:42;;;;;;;19.52;10.52;;;17.00;99.90;;;;;;5435321;26;20076;-75
2024/04/12 07:34:08;;;;;;;17.25;11.63;;;17.10;99.90;;;;;;5433517;26;20042;-75
2024/04/12 07:36:34;;;;;;;15.10;10.20;;;17.10;99.90;;;;;;5429806;26;20472;-75
2024/04/12 07:39:05;;;;;;;14.38;9.68;;;17.10;99.90;;;;;;5436781;26;20007;-75
2024/04/12 07:41:36;;;;;;;14.35;9.05;;;17.10;99.90;;;;;;5431627;26;20007;-75
2024/04/12 07:44:04;;;;;;;14.50;10.15;;;17.20;99.90;;;;;;5432231;26;20043;-75
2024/04/12 07:46:33;;;;;;;19.00;9.70;;;17.20;99.90;;;;;;5425148;26;20000;-75
2024/04/12 07:49:08;;;;;;;17.75;9.10;;;17.20;99.90;;;;;;5429712;26;20003;-75
2024/04/12 07:51:45;;;;;;;19.77;9.63;;;17.30;99.90;;;;;;5433365;26;19999;-75
2024/04/12 07:54:11;;;;;;;17.77;9.43;;;17.30;99.90;;;;;;5434011;26;19999;-75
2024/04/12 07:56:43;;;;;;;17.13;9.82;;;17.30;99.90;;;;;;5428012;26;19995;-76
2024/04/12 07:59:25;;;;;;;17.52;9.68;;;17.30;99.90;;;;;;5429445;26;19999;-75
2024/04/12 08:01:57;;;;;;;16.30;9.48;;;17.30;99.90;;;;;;5439527;26;19998;-76
2024/04/12 08:04:23;;;;;;;14.50;9.43;;;17.40;99.90;;;;;;5435823;26;20014;-76
2024/04/12 08:06:56;;;;;;;15.77;9.40;;;17.40;99.90;;;;;;5432922;26;20022;-76
2024/04/12 08:09:25;;;;;;;15.85;9.32;;;17.50;99.90;;;;;;5435326;26;19998;-76
2024/04/12 08:11:51;;;;;;;26.33;9.48;;;17.50;99.90;;;;;;5428000;26;20007;-77
2024/04/12 08:14:22;;;;;;;16.40;9.73;;;17.60;99.90;;;;;;5425478;26;20076;-77
2024/04/12 08:16:52;;;;;;;17.58;9.38;;;17.50;99.90;;;;;;5428352;26;20043;-76
2024/04/12 08:20:13;;;;;;;16.50;8.80;;;17.50;99.90;;;;;;5430570;26;20484;-76
2024/04/12 08:22:07;;;;;;;17.38;8.50;;;17.60;99.90;;;;;;5434518;26;19995;-76
2024/04/12 08:24:33;;;;;;;11.80;8.30;;;17.60;99.90;;;;;;5433201;26;20072;-76
2024/04/12 08:27:02;;;;;;;13.52;8.57;;;17.60;99.90;;;;;;5467751;26;20392;-76
2024/04/12 08:29:28;;;;;;;16.73;8.00;;;17.70;99.90;;;;;;5430126;26;20376;-77
2024/04/12 08:34:48;;;;;;;15.10;8.07;;;17.80;99.90;;;;;;5428853;26;20549;-77
2024/04/12 08:37:16;;;;;;;15.75;9.23;;;17.80;99.90;;;;;;5423581;26;20002;-77
2024/04/12 08:39:54;;;;;;;17.60;8.48;;;17.90;99.90;;;;;;5429260;26;20011;-77
2024/04/12 08:42:28;;;;;;;17.55;8.07;;;17.90;99.90;;;;;;5433950;26;20459;-76
2024/04/12 08:45:12;;;;;;;12.65;6.55;;;18.10;99.90;;;;;;5434313;26;20003;-77
2024/04/12 08:47:51;;;;;;;11.32;7.75;;;18.10;99.90;;;;;;5433933;26;19994;-77
2024/04/12 08:50:23;;;;;;;13.82;7.63;;;18.20;99.90;;;;;;5430783;26;20657;-77
2024/04/12 08:52:52;;;;;;;13.88;8.05;;;18.20;99.90;;;;;;5433240;26;20019;-77
2024/04/12 08:55:23;;;;;;;15.68;7.43;;;18.20;99.90;;;;;;5432331;26;20007;-77
2024/04/12 08:58:00;;;;;;;14.15;7.43;;;18.30;99.90;;;;;;5426258;26;20003;-77
2024/04/12 09:00:31;;;;;;;13.90;7.18;;;18.30;99.90;;;;;;5430217;26;19998;-77
2024/04/12 09:03:02;;;;;;;12.02;6.80;;;18.30;99.90;;;;;;5424324;26;20018;-77
2024/04/12 09:05:29;;;;;;;13.85;7.78;;;18.40;99.90;;;;;;5427894;26;20058;-77
2024/04/12 09:07:58;;;;;;;11.70;7.30;;;18.50;99.90;;;;;;5427690;26;19995;-77
2024/04/12 09:10:35;;;;;;;9.68;6.15;;;18.50;99.90;;;;;;5433257;26;20000;-77
2024/04/12 09:13:08;;;;;;;11.43;6.63;;;18.60;99.90;;;;;;5433812;26;19995;-77
2024/04/12 09:15:43;;;;;;;12.15;5.95;;;18.70;99.90;;;;;;5429898;26;19994;-77
2024/04/12 09:18:19;;;;;;;14.80;5.85;;;18.80;99.90;;;;;;5429685;26;20401;-78
2024/04/12 09:20:52;;;;;;;11.73;6.22;;;18.80;99.90;;;;;;5426703;26;20343;-78
2024/04/12 09:23:32;;;;;;;10.70;5.90;;;18.90;99.90;;;;;;5430582;26;20002;-77
2024/04/12 09:25:59;;;;;;;11.55;5.55;;;19.20;99.90;;;;;;5431992;26;20008;-78
2024/04/12 09:28:32;;;;;;;7.97;6.30;;;19.30;99.90;;;;;;5430461;26;20006;-78
2024/04/12 09:33:50;;;;;;;8.68;5.45;;;19.60;99.90;;;;;;5435372;26;20014;-78
2024/04/12 09:36:44;;;;;;;8.35;5.47;;;19.60;99.90;;;;;;5434950;26;20027;-78
2024/04/12 09:39:16;;;;;;;9.77;5.53;;;19.80;99.90;;;;;;5432447;26;20075;-78
2024/04/12 09:41:53;;;;;;;7.05;5.13;;;19.90;99.90;;;;;;5437049;26;20042;-78
2024/04/12 09:44:48;;;;;;;9.65;4.57;;;20.00;99.90;;;;;;5433774;26;19999;-77
2024/04/12 10:37:28;;;;;;;5.47;3.92;;;21.40;99.90;;;;;;5425114;26;20088;-78
2024/04/12 10:39:58;;;;;;;5.30;3.33;;;21.50;99.90;;;;;;5431420;26;19995;-78
2024/04/12 10:42:28;;;;;;;9.50;3.67;;;21.50;99.90;;;;;;5443197;26;20142;-78
2024/04/12 10:44:58;;;;;;;6.43;3.25;;;21.50;99.90;;;;;;5442272;26;20058;-78
2024/04/12 10:47:25;;;;;;;9.05;3.90;;;21.60;99.90;;;;;;5439445;26;20713;-77
2024/04/12 10:49:51;;;;;;;7.05;3.50;;;21.70;99.90;;;;;;5446650;26;20039;-78
2024/04/12 10:52:28;;;;;;;14.55;4.75;;;21.80;99.90;;;;;;5442294;26;20003;-77
2024/04/12 10:55:11;;;;;;;7.65;3.92;;;21.70;99.90;;;;;;5445736;26;20044;-78
2024/04/12 10:57:43;;;;;;;;;;;21.70;99.90;;;;;;5441355;26;20045;-78
2024/04/12 11:00:16;;;;;;;7.28;3.30;;;21.80;99.90;;;;;;5443921;26;19924;-77
2024/04/12 11:02:46;;;;;;;7.07;3.03;;;22.00;99.90;;;;;;5442362;26;19999;-78
2024/04/12 11:07:48;;;;;;;8.27;2.72;;;22.30;99.90;;;;;;5439203;26;20030;-77
2024/04/12 11:10:25;;;;;;;5.88;2.95;;;22.60;99.90;;;;;;5441419;26;20339;-78
2024/04/12 11:12:59;;;;;;;8.85;2.92;;;22.60;99.90;;;;;;5439417;26;20006;-78
2024/04/12 11:31:52;;;;;;;6.18;3.05;;;22.80;99.90;;;;;;5438646;26;20075;-80
2024/04/12 11:34:24;;;;;;;5.63;3.33;;;22.80;99.90;;;;;;5437994;26;20075;-78
2024/04/12 11:36:55;;;;;;;6.50;3.70;;;22.80;99.90;;;;;;5441463;26;20031;-79
2024/04/12 11:39:27;;;;;;;7.45;3.22;;;22.90;99.90;;;;;;5439534;26;20418;-79
2024/04/12 11:41:56;;;;;;;;;;;22.80;99.90;;;;;;5443806;26;20010;-82
2024/04/12 11:44:22;;;;;;;17.48;4.43;;;22.90;99.90;;;;;;5442683;26;19933;-78
2024/04/12 11:46:49;;;;;;;8.35;3.22;;;23.00;99.90;;;;;;5441126;26;20010;-79
2024/04/12 11:49:25;;;;;;;11.38;3.13;;;23.00;99.90;;;;;;5436835;26;19999;-78
2024/04/12 11:51:57;;;;;;;10.98;3.00;;;23.00;99.90;;;;;;5437777;26;19994;-79
2024/04/12 11:54:24;;;;;;;;;;;23.10;99.90;;;;;;5439700;26;20006;-80
2024/04/12 11:56:50;;;;;;;6.88;3.30;;;23.40;99.90;;;;;;5442685;26;19932;-80
2024/04/12 11:59:18;;;;;;;8.40;3.10;;;23.50;99.90;;;;;;5441427;26;20457;-81
2024/04/12 12:01:44;;;;;;;8.90;3.38;;;23.70;99.90;;;;;;5437246;26;19998;-78
2024/04/12 12:04:11;;;;;;;31.58;4.30;;;23.50;99.90;;;;;;5445838;26;19999;-79
2024/04/12 12:06:37;;;;;;;4.13;3.10;;;23.40;99.90;;;;;;5443902;26;20005;-79
2024/04/12 12:09:11;;;;;;;8.98;3.33;;;23.40;99.90;;;;;;5443007;26;20003;-79
2024/04/12 12:11:41;;;;;;;9.23;2.88;;;23.40;99.90;;;;;;5440336;26;20439;-79
2024/04/12 12:14:06;;;;;;;6.15;3.20;;;23.30;99.90;;;;;;5435771;26;20440;-78
2024/04/12 12:16:33;;;;;;;7.95;3.17;;;23.20;99.90;;;;;;5436745;26;20006;-78
2024/04/12 12:18:59;;;;;;;7.10;2.53;;;23.30;99.90;;;;;;5441694;26;20071;-79
2024/04/12 12:21:25;;;;;;;6.32;3.22;;;23.20;99.90;;;;;;5434729;26;20089;-78
2024/04/12 12:23:51;;;;;;;6.65;3.38;;;23.20;99.90;;;;;;5440193;26;20010;-79
2024/04/12 12:26:16;;;;;;;8.95;3.55;;;23.40;99.90;;;;;;5439754;26;20005;-78
2024/04/12 12:28:42;;;;;;;6.43;2.75;;;23.50;99.90;;;;;;5430681;26;20002;-79
2024/04/12 12:31:09;;;;;;;11.60;3.90;;;23.30;99.90;;;;;;5431326;26;20098;-78
2024/04/12 12:33:38;;;;;;;5.97;2.90;;;23.30;99.90;;;;;;5430908;26;21223;-77
2024/04/12 12:36:05;;;;;;;5.43;3.30;;;23.40;99.90;;;;;;5432560;26;19995;-77
2024/04/12 12:38:33;;;;;;;8.63;3.50;;;23.40;99.90;;;;;;5421936;26;20651;-77
2024/04/12 12:40:58;;;;;;;4.65;2.85;;;23.50;99.90;;;;;;5433723;26;19998;-76
2024/04/12 12:43:28;;;;;;;6.85;3.45;;;23.70;99.90;;;;;;5428244;26;20067;-77
2024/04/12 12:45:57;;;;;;;7.18;3.53;;;23.60;99.90;;;;;;5429033;26;19996;-77
2024/04/12 12:48:27;;;;;;;7.57;2.47;;;23.70;99.90;;;;;;5433836;26;20018;-76
2024/04/12 12:50:54;;;;;;;10.15;3.35;;;23.90;99.90;;;;;;5433414;26;19995;-78
2024/04/12 12:53:22;;;;;;;5.07;3.10;;;24.00;99.90;;;;;;5431230;26;20019;-77
2024/04/12 12:55:51;;;;;;;6.68;3.03;;;24.10;99.90;;;;;;5434567;26;20459;-76
2024/04/12 12:58:19;;;;;;;6.10;3.00;;;24.20;99.90;;;;;;5424810;26;20052;-77
2024/04/12 13:00:47;;;;;;;7.53;3.10;;;24.40;99.90;;;;;;5426854;26;20068;-77
2024/04/12 13:03:17;;;;;;;7.30;3.22;;;24.40;99.90;;;;;;5431208;26;20016;-77
2024/04/12 13:05:48;;;;;;;5.05;2.97;;;24.30;99.90;;;;;;5428310;26;20005;-76
2024/04/12 13:08:17;;;;;;;10.25;2.80;;;24.20;99.90;;;;;;5423455;26;20083;-77
2024/04/12 13:10:46;;;;;;;4.47;3.03;;;24.30;99.90;;;;;;5427555;26;20009;-77
2024/04/12 13:13:17;;;;;;;7.57;3.50;;;24.10;99.90;;;;;;5427123;26;20011;-78
2024/04/12 13:15:44;;;;;;;9.30;3.13;;;24.20;99.90;;;;;;5428637;26;20039;-76
2024/04/12 13:18:10;;;;;;;4.82;3.25;;;24.20;99.90;;;;;;5424179;26;20003;-76
2024/04/12 13:20:36;;;;;;;8.32;3.35;;;24.30;99.90;;;;;;5427519;26;21571;-76
2024/04/12 13:23:05;;;;;;;8.25;3.22;;;24.30;99.90;;;;;;5429093;26;20026;-76
2024/04/12 13:25:30;;;;;;;5.07;2.63;;;24.10;99.90;;;;;;5425622;26;20081;-76
2024/04/12 13:27:56;;;;;;;4.47;2.60;;;24.10;99.90;;;;;;5432727;26;20054;-79
2024/04/12 13:30:22;;;;;;;6.47;2.50;;;24.00;99.90;;;;;;5426291;26;20014;-78
2024/04/12 13:32:49;;;;;;;6.32;3.65;;;23.90;99.90;;;;;;5427176;26;19996;-76
2024/04/12 13:35:16;;;;;;;5.32;3.10;;;23.70;99.90;;;;;;5426710;26;20652;-77
2024/04/12 13:37:45;;;;;;;5.90;3.53;;;23.60;99.90;;;;;;5429053;26;20036;-76
2024/04/12 13:40:17;;;;;;;7.45;3.35;;;23.70;99.90;;;;;;5427394;26;19999;-76
2024/04/12 13:42:45;;;;;;;4.88;3.10;;;23.60;99.90;;;;;;5424581;26;20379;-78
2024/04/12 13:50:54;;;;;;;7.20;3.70;;;23.60;99.90;;;;;;5433092;26;20010;-78
2024/04/12 13:53:31;;;;;;;7.75;3.40;;;23.80;99.90;;;;;;5430391;26;20013;-77
2024/04/12 13:56:25;;;;;;;5.97;2.75;;;23.80;99.90;;;;;;5432872;26;20003;-78
2024/04/12 13:58:59;;;;;;;7.60;3.80;;;23.90;99.90;;;;;;5425470;26;19995;-80
2024/04/12 14:01:26;;;;;;;5.88;3.00;;;23.70;99.90;;;;;;5435012;26;20368;-78
2024/04/12 14:04:03;;;;;;;10.93;3.35;;;23.90;99.90;;;;;;5422088;26;19999;-79
2024/04/12 14:06:34;;;;;;;7.63;3.97;;;24.00;99.90;;;;;;5431345;26;20003;-77
2024/04/12 14:09:05;;;;;;;5.82;3.47;;;23.90;99.90;;;;;;5429694;26;20003;-78
2024/04/12 14:11:31;;;;;;;10.13;3.83;;;23.80;99.90;;;;;;5427314;26;20002;-81
2024/04/12 14:13:57;;;;;;;6.63;3.83;;;23.80;99.90;;;;;;5431184;26;20100;-78